createdAt,value
2018-02-13T00:02:21.447Z,101011.37
2018-02-13T00:04:49.279Z,101006.20
2018-02-13T00:07:17.022Z,101007.02
2018-02-13T00:09:44.721Z,100999.33
2018-02-13T00:12:12.367Z,101001.33
2018-02-13T00:14:40.131Z,101007.13
2018-02-13T00:17:08.081Z,101002.53
2018-02-13T00:19:35.782Z,101002.94
2018-02-13T00:22:03.511Z,101002.94
2018-02-13T00:24:31.194Z,101005.07
2018-02-13T00:26:58.939Z,101006.05
2018-02-13T00:29:26.769Z,101002.66
2018-02-13T00:31:54.462Z,101000.84
2018-02-13T00:34:22.292Z,100996.16
2018-02-13T00:36:49.978Z,100997.84
2018-02-13T00:39:17.723Z,100998.36
2018-02-13T00:41:46.832Z,100999.85
2018-02-13T00:44:14.552Z,100998.09
2018-02-13T00:46:42.275Z,100994.73
2018-02-13T00:49:10.074Z,100990.23
2018-02-13T00:51:37.840Z,100991.95
2018-02-13T00:54:05.569Z,100990.98
2018-02-13T00:56:33.969Z,100989.28
2018-02-13T00:59:01.758Z,100986.47
2018-02-13T01:01:29.510Z,100979.31
2018-02-13T01:03:57.182Z,100981.83
2018-02-13T01:06:25.581Z,100977.45
2018-02-13T01:08:53.327Z,100980.80
2018-02-13T01:11:21.069Z,100983.75
2018-02-13T01:13:48.812Z,100981.14
2018-02-13T01:16:16.619Z,100981.41
2018-02-13T01:18:44.403Z,100984.08
2018-02-13T01:21:12.134Z,100978.67
2018-02-13T01:23:39.890Z,100974.71
2018-02-13T01:26:07.649Z,100975.55
2018-02-13T01:28:35.386Z,100983.13
2018-02-13T01:31:03.093Z,100979.92
2018-02-13T01:33:30.795Z,100977.06
2018-02-13T01:35:58.647Z,100978.95
2018-02-13T01:38:26.352Z,100979.23
2018-02-13T01:40:54.131Z,100981.23
2018-02-13T01:43:21.839Z,100976.60
2018-02-13T01:45:49.592Z,100980.05
2018-02-13T01:48:17.293Z,100975.16
2018-02-13T01:50:45.058Z,100972.91
2018-02-13T01:53:12.777Z,100973.65
2018-02-13T01:55:40.478Z,100971.63
2018-02-13T01:58:08.556Z,100971.75
2018-02-13T02:00:36.250Z,100964.55
2018-02-13T02:03:04.015Z,100966.20
2018-02-13T02:05:31.700Z,100970.33
2018-02-13T02:07:59.477Z,100966.72
2018-02-13T02:10:27.178Z,100966.09
2018-02-13T02:12:54.874Z,100959.48
2018-02-13T02:15:22.618Z,100954.59
2018-02-13T02:17:50.303Z,100958.69
2018-02-13T02:20:18.029Z,100955.84
2018-02-13T02:22:45.759Z,100956.92
2018-02-13T02:25:13.509Z,100944.70
2018-02-13T02:27:41.215Z,100943.88
2018-02-13T02:30:09.113Z,100939.20
2018-02-13T02:32:36.835Z,100943.27
2018-02-13T02:35:04.514Z,100931.70
2018-02-13T02:37:32.255Z,100938.52
2018-02-13T02:39:59.920Z,100932.95
2018-02-13T02:42:49.052Z,100931.28
2018-02-13T02:45:16.788Z,100925.80
2018-02-13T02:47:44.612Z,100925.44
2018-02-13T02:50:12.333Z,100928.31
2018-02-13T02:52:40.168Z,100927.05
2018-02-13T02:55:07.858Z,100926.45
2018-02-13T02:57:35.590Z,100926.53
2018-02-13T03:00:03.452Z,100919.92
2018-02-13T03:02:31.180Z,100917.13
2018-02-13T03:04:58.921Z,100917.33
2018-02-13T03:07:26.711Z,100911.67
2018-02-13T03:09:54.404Z,100911.82
2018-02-13T03:12:22.195Z,100908.87
2018-02-13T03:14:49.935Z,100909.33
2018-02-13T03:17:18.227Z,100908.91
2018-02-13T03:19:45.998Z,100903.12
2018-02-13T03:22:13.703Z,100903.92
2018-02-13T03:24:41.455Z,100901.25
2018-02-13T03:27:09.249Z,100901.61
2018-02-13T03:29:37.082Z,100901.78
2018-02-13T03:32:04.811Z,100901.23
2018-02-13T03:34:32.545Z,100901.81
2018-02-13T03:37:01.008Z,100901.46
2018-02-13T03:39:28.732Z,100899.66
2018-02-13T03:41:56.471Z,100894.47
2018-02-13T03:44:24.179Z,100887.95
2018-02-13T03:46:51.943Z,100891.12
2018-02-13T03:49:19.665Z,100890.34
2018-02-13T03:51:47.410Z,100890.41
2018-02-13T03:54:15.118Z,100889.55
2018-02-13T03:56:42.913Z,100884.83
2018-02-13T03:59:10.601Z,100892.41
2018-02-13T04:01:38.356Z,100882.52
2018-02-13T04:04:06.125Z,100883.42
2018-02-13T04:06:33.845Z,100879.83
2018-02-13T04:09:01.700Z,100871.30
2018-02-13T04:11:29.416Z,100869.02
2018-02-13T04:13:57.164Z,100875.88
2018-02-13T04:16:24.901Z,100868.23
2018-02-13T04:18:52.643Z,100861.34
2018-02-13T04:21:20.423Z,100862.15
2018-02-13T04:23:49.046Z,100865.10
2018-02-13T04:26:16.769Z,100862.50
2018-02-13T04:28:44.465Z,100863.61
2018-02-13T04:31:12.208Z,100868.48
2018-02-13T04:33:39.976Z,100871.70
2018-02-13T04:36:07.735Z,100868.34
2018-02-13T04:38:35.475Z,100864.11
2018-02-13T04:41:03.310Z,100865.36
2018-02-13T04:43:31.067Z,100865.30
2018-02-13T04:45:58.890Z,100862.62
2018-02-13T04:48:26.600Z,100857.05
2018-02-13T04:50:54.480Z,100852.17
2018-02-13T04:53:22.209Z,100855.54
2018-02-13T04:55:49.993Z,100851.82
2018-02-13T04:58:18.505Z,100849.64
2018-02-13T05:00:46.255Z,100850.89
2018-02-13T05:03:14.018Z,100845.08
2018-02-13T05:05:42.123Z,100840.94
2018-02-13T05:08:09.888Z,100847.23
2018-02-13T05:10:37.622Z,100839.41
2018-02-13T05:13:05.385Z,100834.97
2018-02-13T05:15:33.110Z,100845.72
2018-02-13T05:18:00.832Z,100841.62
2018-02-13T05:20:28.635Z,100838.83
2018-02-13T05:22:56.351Z,100838.13
2018-02-13T05:25:24.177Z,100837.70
2018-02-13T05:27:51.886Z,100830.81
2018-02-13T05:30:19.705Z,100834.72
2018-02-13T05:32:47.465Z,100823.14
2018-02-13T05:35:15.285Z,100823.91
2018-02-13T05:37:43.014Z,100829.94
2018-02-13T05:40:10.794Z,100832.19
2018-02-13T05:42:38.518Z,100829.87
2018-02-13T05:45:06.249Z,100832.02
2018-02-13T05:47:33.990Z,100828.72
2018-02-13T05:50:01.731Z,100831.48
2018-02-13T05:52:29.513Z,100831.02
2018-02-13T05:54:57.232Z,100829.97
2018-02-13T05:57:25.621Z,100823.39
2018-02-13T05:59:53.332Z,100821.95
2018-02-13T06:02:21.173Z,100823.53
2018-02-13T06:04:48.915Z,100821.24
2018-02-13T06:07:16.710Z,100820.00
2018-02-13T06:09:44.488Z,100820.73
2018-02-13T06:12:12.366Z,100821.80
2018-02-13T06:14:40.272Z,100820.83
2018-02-13T06:17:08.165Z,100818.71
2018-02-13T06:19:35.959Z,100822.81
2018-02-13T06:22:03.768Z,100825.34
2018-02-13T06:24:31.542Z,100823.66
2018-02-13T06:27:00.077Z,100816.85
2018-02-13T06:29:27.787Z,100818.30
2018-02-13T06:31:55.764Z,100818.27
2018-02-13T06:34:23.619Z,100814.64
2018-02-13T06:36:51.529Z,100813.55
2018-02-13T06:39:19.579Z,100813.36
2018-02-13T06:41:47.422Z,100800.27
2018-02-13T06:44:15.159Z,100807.72
2018-02-13T06:46:42.905Z,100807.42
2018-02-13T06:49:10.758Z,100796.77
2018-02-13T06:51:38.601Z,100805.14
2018-02-13T06:54:06.386Z,100803.48
2018-02-13T06:56:34.170Z,100806.97
2018-02-13T06:59:01.927Z,100803.06
2018-02-13T07:01:29.698Z,100799.92
2018-02-13T07:03:57.441Z,100798.92
2018-02-13T07:06:25.211Z,100798.64
2018-02-13T07:08:53.013Z,100798.77
2018-02-13T07:11:20.794Z,100796.13
2018-02-13T07:13:48.565Z,100797.38
2018-02-13T07:16:16.321Z,100800.55
2018-02-13T07:18:44.050Z,100799.30
2018-02-13T07:21:11.819Z,100795.44
2018-02-13T07:23:39.570Z,100798.34
2018-02-13T07:26:07.344Z,100800.14
2018-02-13T07:28:35.091Z,100811.91
2018-02-13T07:31:02.811Z,100802.63
2018-02-13T07:33:30.528Z,100806.61
2018-02-13T07:35:58.247Z,100807.69
2018-02-13T07:38:25.971Z,100815.67
2018-02-13T07:40:53.668Z,100808.53
2018-02-13T07:43:21.446Z,100810.10
2018-02-13T07:45:49.138Z,100803.55
2018-02-13T07:48:17.278Z,100800.81
2018-02-13T07:50:44.981Z,100795.92
2018-02-13T07:53:12.769Z,100796.69
2018-02-13T07:55:40.589Z,100795.59
2018-02-13T07:58:08.302Z,100804.25
2018-02-13T08:00:35.994Z,100800.20
2018-02-13T08:03:03.723Z,100795.76
2018-02-13T08:05:31.418Z,100799.41
2018-02-13T08:07:59.148Z,100791.34
2018-02-13T08:10:26.931Z,100789.33
2018-02-13T08:12:54.711Z,100790.55
2018-02-13T08:15:22.407Z,100789.77
2018-02-13T08:17:50.188Z,100786.95
2018-02-13T08:20:17.918Z,100790.40
2018-02-13T08:22:45.719Z,100790.02
2018-02-13T08:25:13.583Z,100790.55
2018-02-13T08:27:41.397Z,100786.52
2018-02-13T08:30:09.078Z,100790.59
2018-02-13T08:32:36.831Z,100792.52
2018-02-13T08:35:04.581Z,100790.52
2018-02-13T08:37:32.299Z,100789.10
2018-02-13T08:40:00.066Z,100787.88
2018-02-13T08:42:27.840Z,100786.48
2018-02-13T08:44:55.585Z,100781.44
2018-02-13T08:47:23.308Z,100785.08
2018-02-13T08:49:51.015Z,100781.73
2018-02-13T08:52:18.760Z,100777.31
2018-02-13T08:54:46.495Z,100773.05
2018-02-13T08:57:14.306Z,100780.77
2018-02-13T08:59:42.038Z,100775.90
2018-02-13T09:02:09.763Z,100779.08
2018-02-13T09:04:37.477Z,100774.12
2018-02-13T09:07:05.191Z,100782.53
2018-02-13T09:09:32.961Z,100776.46
2018-02-13T09:12:00.767Z,100766.92
2018-02-13T09:14:28.467Z,100769.98
2018-02-13T09:16:56.227Z,100762.34
2018-02-13T09:19:24.038Z,100757.38
2018-02-13T09:21:51.767Z,100755.97
2018-02-13T09:24:19.545Z,100758.81
2018-02-13T09:26:47.277Z,100758.61
2018-02-13T09:29:14.991Z,100755.44
2018-02-13T09:31:42.783Z,100753.91
2018-02-13T09:34:10.480Z,100749.03
2018-02-13T09:36:38.225Z,100749.13
2018-02-13T09:39:05.955Z,100742.41
2018-02-13T09:41:33.706Z,100744.22
2018-02-13T09:44:01.423Z,100737.08
2018-02-13T09:46:29.144Z,100730.75
2018-02-13T09:48:56.860Z,100740.60
2018-02-13T09:51:24.659Z,100740.43
2018-02-13T09:53:52.359Z,100741.23
2018-02-13T09:56:20.111Z,100740.37
2018-02-13T09:58:47.841Z,100739.53
2018-02-13T10:01:15.645Z,100732.34
2018-02-13T10:03:43.364Z,100740.94
2018-02-13T10:06:11.140Z,100735.91
2018-02-13T10:08:38.882Z,100739.29
2018-02-13T10:11:06.602Z,100738.73
2018-02-13T10:13:34.283Z,100744.50
2018-02-13T10:16:01.998Z,100733.77
2018-02-13T10:18:29.615Z,100725.64
2018-02-13T10:20:57.326Z,100724.73
2018-02-13T10:23:25.017Z,100724.63
2018-02-13T10:25:52.743Z,100728.70
2018-02-13T10:28:20.448Z,100726.27
2018-02-13T10:30:48.186Z,100722.47
2018-02-13T10:33:15.818Z,100715.84
2018-02-13T10:35:43.498Z,100715.14
2018-02-13T10:38:11.178Z,100712.03
2018-02-13T10:40:38.776Z,100704.83
2018-02-13T10:43:06.553Z,100706.83
2018-02-13T10:45:34.156Z,100704.01
2018-02-13T10:48:01.828Z,100700.10
2018-02-13T10:50:29.423Z,100700.05
2018-02-13T10:52:57.054Z,100686.67
2018-02-13T10:55:24.765Z,100686.67
2018-02-13T10:57:52.399Z,100681.92
2018-02-13T11:00:20.001Z,100682.94
2018-02-13T11:02:47.761Z,100675.44
2018-02-13T11:05:15.364Z,100686.25
2018-02-13T11:07:43.019Z,100681.98
2018-02-13T11:10:10.634Z,100679.03
2018-02-13T11:12:38.264Z,100671.20
2018-02-13T11:15:05.885Z,100664.70
2018-02-13T11:17:33.547Z,100652.42
2018-02-13T11:20:01.210Z,100651.88
2018-02-13T11:22:28.844Z,100652.02
2018-02-13T11:24:56.523Z,100644.20
2018-02-13T11:27:24.114Z,100657.41
2018-02-13T11:29:51.806Z,100640.98
2018-02-13T11:32:19.457Z,100635.34
2018-02-13T11:34:47.127Z,100630.90
2018-02-13T11:37:14.763Z,100631.72
2018-02-13T11:39:42.438Z,100630.44
2018-02-13T11:42:10.049Z,100623.34
2018-02-13T11:44:37.695Z,100639.20
2018-02-13T11:47:05.295Z,100624.48
2018-02-13T11:49:32.908Z,100629.33
2018-02-13T11:52:00.623Z,100627.48
2018-02-13T11:54:28.234Z,100618.66
2018-02-13T11:56:55.879Z,100610.33
2018-02-13T11:59:23.462Z,100606.73
2018-02-13T12:01:51.124Z,100606.10
2018-02-13T12:04:18.745Z,100607.55
2018-02-13T12:06:47.135Z,100594.61
2018-02-13T12:09:14.759Z,100606.55
2018-02-13T12:11:42.418Z,100599.20
2018-02-13T12:14:10.078Z,100597.83
2018-02-13T12:16:37.703Z,100587.88
2018-02-13T12:19:05.346Z,100590.44
2018-02-13T12:21:32.947Z,100585.44
2018-02-13T12:24:00.547Z,100579.47
2018-02-13T12:26:28.361Z,100575.98
2018-02-13T12:28:56.006Z,100571.80
2018-02-13T12:31:23.711Z,100570.92
2018-02-13T12:33:51.326Z,100572.28
2018-02-13T12:36:18.971Z,100564.27
2018-02-13T12:38:46.630Z,100564.11
2018-02-13T12:41:14.291Z,100565.39
2018-02-13T12:43:41.921Z,100565.61
2018-02-13T12:46:10.178Z,100557.75
2018-02-13T12:48:37.796Z,100560.61
2018-02-13T12:51:05.411Z,100549.20
2018-02-13T12:53:33.068Z,100552.22
2018-02-13T12:56:00.649Z,100535.23
2018-02-13T12:58:28.298Z,100535.41
2018-02-13T13:00:55.894Z,100540.07
2018-02-13T13:03:23.532Z,100536.50
2018-02-13T13:05:51.187Z,100532.07
2018-02-13T13:08:18.849Z,100526.80
2018-02-13T13:10:46.480Z,100525.33
2018-02-13T13:13:14.122Z,100523.98
2018-02-13T13:15:41.746Z,100513.70
2018-02-13T13:18:09.381Z,100513.34
2018-02-13T13:20:37.051Z,100512.87
2018-02-13T13:23:04.669Z,100507.25
2018-02-13T13:25:32.282Z,100508.17
2018-02-13T13:27:59.914Z,100503.29
2018-02-13T13:30:27.526Z,100511.16
2018-02-13T13:32:55.161Z,100500.58
2018-02-13T13:35:22.771Z,100506.41
2018-02-13T13:37:50.469Z,100490.33
2018-02-13T13:40:18.130Z,100496.45
2018-02-13T13:42:45.811Z,100491.14
2018-02-13T13:45:13.428Z,100487.09
2018-02-13T13:47:41.094Z,100487.95
2018-02-13T13:50:08.712Z,100482.03
2018-02-13T13:52:36.536Z,100478.72
2018-02-13T13:55:04.164Z,100485.38
2018-02-13T13:57:31.762Z,100473.30
2018-02-13T13:59:59.406Z,100481.76
2018-02-13T14:02:27.074Z,100475.66
2018-02-13T14:04:54.770Z,100470.42
2018-02-13T14:07:22.519Z,100473.36
2018-02-13T14:09:50.222Z,100469.80
2018-02-13T14:12:17.842Z,100472.94
2018-02-13T14:14:45.498Z,100461.68
2018-02-13T14:17:13.706Z,100458.64
2018-02-13T14:19:42.075Z,100458.02
2018-02-13T14:22:09.734Z,100458.01
2018-02-13T14:24:37.432Z,100454.55
2018-02-13T14:27:05.071Z,100459.80
2018-02-13T14:29:32.776Z,100458.62
2018-02-13T14:32:00.401Z,100458.93
2018-02-13T14:34:28.046Z,100450.30
2018-02-13T14:36:55.712Z,100448.09
2018-02-13T14:39:23.408Z,100448.80
2018-02-13T14:41:51.114Z,100450.69
2018-02-13T14:44:18.775Z,100453.68
2018-02-13T14:46:46.374Z,100457.06
2018-02-13T14:49:14.019Z,100447.70
2018-02-13T14:51:41.628Z,100452.55
2018-02-13T14:54:09.263Z,100444.85
2018-02-13T14:56:36.866Z,100445.34
2018-02-13T14:59:04.543Z,100443.56
2018-02-13T15:01:32.138Z,100446.31
2018-02-13T15:03:59.875Z,100446.86
2018-02-13T15:06:27.531Z,100451.55
2018-02-13T15:08:55.184Z,100446.81
2018-02-13T15:11:22.789Z,100447.81
2018-02-13T15:13:50.547Z,100444.10
2018-02-13T15:16:18.237Z,100442.58
2018-02-13T15:18:45.902Z,100452.92
2018-02-13T15:21:13.487Z,100447.39
2018-02-13T15:23:41.149Z,100444.94
2018-02-13T15:26:08.790Z,100442.97
2018-02-13T15:28:36.442Z,100444.39
2018-02-13T15:31:04.072Z,100441.73
2018-02-13T15:33:31.703Z,100449.41
2018-02-13T15:35:59.318Z,100439.91
2018-02-13T15:38:26.967Z,100436.45
2018-02-13T15:40:54.654Z,100439.86
2018-02-13T15:43:22.292Z,100436.96
2018-02-13T15:45:49.889Z,100434.00
2018-02-13T15:48:17.584Z,100425.15
2018-02-13T15:50:45.222Z,100432.91
2018-02-13T15:53:12.855Z,100425.99
2018-02-13T15:55:40.515Z,100425.02
2018-02-13T15:58:08.190Z,100421.33
2018-02-13T16:00:35.823Z,100418.34
2018-02-13T16:03:03.435Z,100415.53
2018-02-13T16:05:31.122Z,100420.80
2018-02-13T16:07:58.809Z,100420.79
2018-02-13T16:10:26.501Z,100416.22
2018-02-13T16:12:54.115Z,100425.53
2018-02-13T16:15:21.761Z,100428.27
2018-02-13T16:17:49.382Z,100429.84
2018-02-13T16:20:17.175Z,100437.23
2018-02-13T16:22:44.782Z,100441.05
2018-02-13T16:25:12.414Z,100444.42
2018-02-13T16:27:40.015Z,100441.41
2018-02-13T16:30:07.666Z,100444.57
2018-02-13T16:32:36.137Z,100451.86
2018-02-13T16:35:03.760Z,100447.58
2018-02-13T16:37:31.358Z,100443.59
2018-02-13T16:39:59.250Z,100441.16
2018-02-13T16:42:26.891Z,100442.42
2018-02-13T16:44:54.595Z,100445.24
2018-02-13T16:47:22.299Z,100437.34
2018-02-13T16:49:49.978Z,100436.92
2018-02-13T16:52:17.606Z,100445.45
2018-02-13T16:54:45.386Z,100446.83
2018-02-13T16:57:13.389Z,100455.42
2018-02-13T16:59:41.179Z,100456.32
2018-02-13T17:02:08.847Z,100457.30
2018-02-13T17:04:36.472Z,100456.85
2018-02-13T17:07:04.153Z,100449.45
2018-02-13T17:09:32.518Z,100450.02
2018-02-13T17:12:00.182Z,100450.98
2018-02-13T17:14:27.796Z,100448.12
2018-02-13T17:16:55.446Z,100447.14
2018-02-13T17:19:23.110Z,100451.22
2018-02-13T17:21:50.759Z,100454.50
2018-02-13T17:24:18.836Z,100459.09
2018-02-13T17:26:46.497Z,100452.50
2018-02-13T17:29:14.103Z,100457.84
2018-02-13T17:31:41.762Z,100453.14
2018-02-13T17:34:09.366Z,100458.56
2018-02-13T17:36:37.047Z,100458.27
2018-02-13T17:39:04.673Z,100453.31
2018-02-13T17:41:32.296Z,100459.57
2018-02-13T17:43:59.984Z,100463.81
2018-02-13T17:46:27.571Z,100465.83
2018-02-13T17:48:55.210Z,100463.55
2018-02-13T17:51:22.851Z,100471.65
2018-02-13T17:53:50.498Z,100471.99
2018-02-13T17:56:18.122Z,100469.31
2018-02-13T17:58:45.799Z,100470.98
2018-02-13T18:01:13.418Z,100469.97
2018-02-13T18:03:41.114Z,100475.68
2018-02-13T18:06:08.775Z,100471.37
2018-02-13T18:08:36.518Z,100472.54
2018-02-13T18:11:04.121Z,100475.72
2018-02-13T18:13:31.892Z,100477.27
2018-02-13T18:15:59.518Z,100483.84
2018-02-13T18:18:27.811Z,100482.38
2018-02-13T18:20:55.441Z,100490.65
2018-02-13T18:23:23.079Z,100480.97
2018-02-13T18:25:50.725Z,100488.16
2018-02-13T18:28:18.671Z,100481.05
2018-02-13T18:30:46.263Z,100487.42
2018-02-13T18:33:13.944Z,100488.70
2018-02-13T18:35:41.700Z,100482.01
2018-02-13T18:38:09.438Z,100488.39
2018-02-13T18:40:37.209Z,100495.56
2018-02-13T18:43:05.026Z,100490.83
2018-02-13T18:45:32.680Z,100495.66
2018-02-13T18:48:00.331Z,100491.58
2018-02-13T18:50:28.036Z,100492.65
2018-02-13T18:55:23.410Z,100489.23
2018-02-13T18:57:51.129Z,100496.98
2018-02-13T19:00:18.809Z,100497.62
2018-02-13T19:02:46.518Z,100499.84
2018-02-13T19:05:14.734Z,100496.12
2018-02-13T19:07:42.458Z,100499.16
2018-02-13T19:10:10.131Z,100495.05
2018-02-13T19:12:37.854Z,100498.41
2018-02-13T19:15:05.529Z,100491.52
2018-02-13T19:17:33.278Z,100496.27
2018-02-13T19:20:01.022Z,100496.52
2018-02-13T19:22:28.778Z,100502.22
2018-02-13T19:24:56.465Z,100497.95
2018-02-13T19:27:24.098Z,100499.45
2018-02-13T19:29:51.811Z,100505.91
2018-02-13T19:32:19.518Z,100505.16
2018-02-13T19:34:47.253Z,100506.75
2018-02-13T19:37:14.966Z,100510.77
2018-02-13T19:39:42.675Z,100506.78
2018-02-13T19:42:10.416Z,100513.22
2018-02-13T19:44:38.255Z,100516.36
2018-02-13T19:47:06.011Z,100515.44
2018-02-13T19:49:33.714Z,100518.63
2018-02-13T19:52:01.489Z,100510.75
2018-02-13T19:54:29.163Z,100516.03
2018-02-13T19:56:56.938Z,100515.54
2018-02-13T19:59:24.640Z,100516.31
2018-02-13T20:01:52.467Z,100518.74
2018-02-13T20:04:20.124Z,100526.11
2018-02-13T20:06:47.900Z,100526.38
2018-02-13T20:09:15.589Z,100528.63
2018-02-13T20:11:43.313Z,100530.72
2018-02-13T20:14:11.236Z,100523.58
2018-02-13T20:16:38.989Z,100527.47
2018-02-13T20:19:06.684Z,100522.43
2018-02-13T20:21:34.588Z,100528.53
2018-02-13T20:24:02.268Z,100534.47
2018-02-13T20:26:29.999Z,100532.71
2018-02-13T20:28:57.686Z,100528.75
2018-02-13T20:31:25.404Z,100530.33
2018-02-13T20:33:53.071Z,100525.34
2018-02-13T20:36:20.786Z,100530.70
2018-02-13T20:38:48.502Z,100534.58
2018-02-13T20:41:16.187Z,100535.31
2018-02-13T20:43:43.925Z,100541.14
2018-02-13T20:46:11.702Z,100544.14
2018-02-13T20:48:39.454Z,100545.26
2018-02-13T20:51:07.102Z,100545.73
2018-02-13T20:53:34.974Z,100545.53
2018-02-13T20:56:02.659Z,100558.33
2018-02-13T20:58:30.364Z,100552.83
2018-02-13T21:00:58.053Z,100554.88
2018-02-13T21:03:25.779Z,100555.13
2018-02-13T21:05:53.445Z,100560.69
2018-02-13T21:08:21.165Z,100562.56
2018-02-13T21:10:48.841Z,100561.45
2018-02-13T21:13:16.710Z,100561.98
2018-02-13T21:15:44.437Z,100563.58
2018-02-13T21:18:12.124Z,100558.64
2018-02-13T21:20:39.977Z,100566.13
2018-02-13T21:23:07.670Z,100567.28
2018-02-13T21:25:35.375Z,100572.44
2018-02-13T21:28:03.090Z,100573.34
2018-02-13T21:30:30.753Z,100573.45
2018-02-13T21:32:58.629Z,100578.45
2018-02-13T21:35:26.336Z,100581.50
2018-02-13T21:37:54.063Z,100580.29
2018-02-13T21:40:21.726Z,100577.65
2018-02-13T21:42:49.422Z,100582.39
2018-02-13T21:45:17.115Z,100585.02
2018-02-13T21:47:44.793Z,100587.34
2018-02-13T21:50:12.478Z,100592.48
2018-02-13T21:52:40.165Z,100591.65
2018-02-13T21:55:07.829Z,100589.02
2018-02-13T21:57:35.562Z,100589.66
2018-02-13T22:00:03.236Z,100584.59
2018-02-13T22:02:30.983Z,100582.25
2018-02-13T22:04:58.676Z,100586.11
2018-02-13T22:07:26.335Z,100584.08
2018-02-13T22:09:54.030Z,100579.53
2018-02-13T22:12:21.702Z,100584.71
2018-02-13T22:14:49.411Z,100580.13
2018-02-13T22:17:17.162Z,100584.41
2018-02-13T22:19:44.929Z,100586.80
2018-02-13T22:22:12.609Z,100585.98
2018-02-13T22:24:40.378Z,100582.34
2018-02-13T22:27:08.046Z,100581.01
2018-02-13T22:29:35.745Z,100577.95
2018-02-13T22:32:03.398Z,100574.33
2018-02-13T22:34:31.095Z,100581.93
2018-02-13T22:36:58.779Z,100584.77
2018-02-13T22:39:26.525Z,100589.67
2018-02-13T22:41:54.188Z,100585.41
2018-02-13T22:44:21.885Z,100590.68
2018-02-13T22:46:49.546Z,100593.91
2018-02-13T22:49:17.243Z,100595.65
2018-02-13T22:51:44.928Z,100599.81
2018-02-13T22:54:12.625Z,100598.49
2018-02-13T22:56:40.301Z,100604.49
2018-02-13T22:59:08.001Z,100604.08
2018-02-13T23:01:35.669Z,100605.39
2018-02-13T23:04:03.361Z,100603.17
2018-02-13T23:06:31.041Z,100607.52
2018-02-13T23:08:58.754Z,100611.98
2018-02-13T23:11:26.466Z,100613.63
2018-02-13T23:13:54.137Z,100610.25
2018-02-13T23:16:21.826Z,100615.04
2018-02-13T23:18:49.498Z,100620.30
2018-02-13T23:21:17.192Z,100619.57
2018-02-13T23:23:44.854Z,100622.32
2018-02-13T23:26:12.539Z,100622.52
2018-02-13T23:28:40.246Z,100622.52
2018-02-13T23:31:07.935Z,100624.47
2018-02-13T23:33:35.629Z,100625.48
2018-02-13T23:36:03.338Z,100625.69
2018-02-13T23:38:31.006Z,100628.41
2018-02-13T23:40:58.726Z,100634.09
2018-02-13T23:43:26.389Z,100634.89
2018-02-13T23:45:54.079Z,100638.64
2018-02-13T23:48:21.738Z,100641.69
2018-02-13T23:50:49.443Z,100645.44
2018-02-13T23:53:17.131Z,100644.13
2018-02-13T23:55:44.778Z,100650.30
2018-02-13T23:58:12.469Z,100649.19
